^^
Meteo Knjazevac Station Historical Data
Daily Summary for June 18, 2021 Units:  English    Metric   Both
Daily Weekly Monthly Yearly Custom
  High: Low: Average:
Temperature: 62.4 °F 55.4 °F 58.7 °F
Dew Point: 61 °F 54.8 °F 57.8 °F
Humidity: 98% 95% 97%
Wind Speed: 2mph 0mph 0.5mph
Wind Gust: 5mph - -
Wind- - WSW
Pressure: 30.15 in 30.13 in -
Precipitation: 0.00 in    
Historical Graphs
 
 
Tabular Data for June 18, 2021
Time Temperature Dew Point Pressure Wind Wind Speed Wind Gust Humidity Rainfall Rate (Hourly) solar Conditions
00:00 62.4 °F 61 °F 30.15 in East 1 mph 5 mph 95% 0.00 in 0 W/m2
00:10 62 °F 60.6 °F 30.14 in Calm   5 mph 95% 0.00 in 0 W/m2
00:20 61.5 °F 60 °F 30.14 in Calm   3 mph 95% 0.00 in 0 W/m2
00:30 61.3 °F 60.2 °F 30.14 in NNW 1 mph 2 mph 96% 0.00 in 0 W/m2
00:40 61.2 °F 60 °F 30.15 in NW 1 mph 1 mph 96% 0.00 in 0 W/m2
00:50 60.8 °F 59.6 °F 30.15 in Calm   2 mph 96% 0.00 in 0 W/m2
01:00 60.3 °F 58.8 °F 30.14 in SW 1 mph 2 mph 95% 0.00 in 0 W/m2
01:10 59.9 °F 58.8 °F 30.14 in Calm   1 mph 96% 0.00 in 0 W/m2
01:20 59.7 °F 58.6 °F 30.14 in Calm     96% 0.00 in 0 W/m2
01:30 59.5 °F 58.4 °F 30.14 in Calm   1 mph 96% 0.00 in 0 W/m2
01:40 59.4 °F 58.2 °F 30.14 in Calm   1 mph 96% 0.00 in 0 W/m2
01:50 59 °F 57.9 °F 30.14 in SW 1 mph 2 mph 96% 0.00 in 0 W/m2
02:00 58.8 °F 57.7 °F 30.14 in WSW 1 mph 2 mph 96% 0.00 in 0 W/m2
02:10 58.6 °F 58.1 °F 30.14 in ENE 1 mph 3 mph 98% 0.00 in 0 W/m2
02:20 58.5 °F 57.9 °F 30.14 in WNW 1 mph 2 mph 98% 0.00 in 0 W/m2
02:30 58.3 °F 57.7 °F 30.13 in Calm   2 mph 98% 0.00 in 0 W/m2
02:40 57.9 °F 57.4 °F 30.13 in NW 1 mph 2 mph 98% 0.00 in 0 W/m2
02:50 57.6 °F 57 °F 30.13 in Calm   2 mph 98% 0.00 in 0 W/m2
03:00 57.4 °F 56.8 °F 30.14 in NW 1 mph 2 mph 98% 0.00 in 0 W/m2
03:10 57.2 °F 56.6 °F 30.13 in North 1 mph 3 mph 98% 0.00 in 0 W/m2
03:20 57 °F 56.4 °F 30.13 in Calm   3 mph 98% 0.00 in 0 W/m2
03:30 56.7 °F 56.1 °F 30.13 in Calm   2 mph 98% 0.00 in 0 W/m2
03:40 56.5 °F 55.9 °F 30.13 in WSW 2 mph 3 mph 98% 0.00 in 0 W/m2
03:50 56.1 °F 55.6 °F 30.13 in Calm   3 mph 98% 0.00 in 0 W/m2
04:00 55.9 °F 55.4 °F 30.13 in Calm   2 mph 98% 0.00 in 0 W/m2
04:10 55.6 °F 55 °F 30.13 in WSW 1 mph 2 mph 98% 0.00 in 0 W/m2
04:20 55.4 °F 54.8 °F 30.13 in Calm   2 mph 98% 0.00 in 0 W/m2
Knjazevac, Serbia
Compliments of Weather Underground - 2 mb